Time;durP1;ratioP1;P1;durP2;ratioP2;P2;SDS_P1;SDS_P2;PMS_P1;PMS_P2;Temp;Humidity;BMP_temperature;BMP_pressure;BME280_temperature;BME280_humidity;BME280_pressure;Samples;Min_cycle;Max_cycle;Signal;HPM_P1;HPM_P2
2023/09/06 00:00:30;;;;;;;1.25;0.50;;;;;;;;;;2069303;28;20117;-59
2023/09/06 00:01:49;;;;;;;1.42;0.40;;;;;;;;;;2067822;28;20065;-60
2023/09/06 00:03:10;;;;;;;0.77;0.32;;;;;;;;;;2067048;28;20056;-61
2023/09/06 00:04:28;;;;;;;2.00;0.47;;;;;;;;;;2071209;28;20604;-60
2023/09/06 00:05:47;;;;;;;0.40;0.30;;;;;;;;;;2071229;28;20034;-61
2023/09/06 00:07:07;;;;;;;0.38;0.20;;;;;;;;;;2070579;28;20431;-60
2023/09/06 00:08:26;;;;;;;1.65;0.30;;;;;;;;;;2070634;28;20026;-61
2023/09/06 00:09:44;;;;;;;1.73;0.40;;;;;;;;;;2071088;28;20038;-61
2023/09/06 00:11:06;;;;;;;1.60;0.52;;;;;;;;;;2071141;28;20109;-61
2023/09/06 00:12:26;;;;;;;2.42;0.45;;;;;;;;;;2071206;28;20116;-61
2023/09/06 00:13:45;;;;;;;1.13;0.45;;;;;;;;;;2071859;28;20084;-60
2023/09/06 00:15:04;;;;;;;0.82;0.40;;;;;;;;;;2069524;28;20038;-60
2023/09/06 00:16:23;;;;;;;1.15;0.40;;;;;;;;;;2070145;28;20033;-61
2023/09/06 00:17:42;;;;;;;0.50;0.30;;;;;;;;;;2070844;28;20029;-59
2023/09/06 00:19:01;;;;;;;2.03;0.40;;;;;;;;;;2068168;28;20030;-61
2023/09/06 00:20:26;;;;;;;2.30;0.50;;;;;;;;;;2072631;28;20120;-59
2023/09/06 00:21:45;;;;;;;0.77;0.50;;;;;;;;;;2072178;28;20025;-59
2023/09/06 00:23:05;;;;;;;1.50;0.52;;;;;;;;;;2068537;28;20026;-59
2023/09/06 00:24:24;;;;;;;1.25;0.40;;;;;;;;;;2071623;28;20025;-58
2023/09/06 00:25:45;;;;;;;1.33;0.60;;;;;;;;;;2069346;28;20030;-60
2023/09/06 00:27:04;;;;;;;0.60;0.50;;;;;;;;;;2071488;28;20050;-59
2023/09/06 00:28:24;;;;;;;3.08;0.63;;;;;;;;;;2071768;28;20034;-59
2023/09/06 00:29:46;;;;;;;1.52;0.60;;;;;;;;;;2059420;28;20031;-61
2023/09/06 00:31:05;;;;;;;1.75;0.38;;;;;;;;;;2068888;28;20026;-59
2023/09/06 00:32:24;;;;;;;0.45;0.35;;;;;;;;;;2070033;28;20026;-59
2023/09/06 00:33:44;;;;;;;0.63;0.32;;;;;;;;;;2072699;28;20097;-59
2023/09/06 00:35:03;;;;;;;1.90;0.60;;;;;;;;;;2071598;28;20320;-60
2023/09/06 00:36:22;;;;;;;2.50;0.30;;;;;;;;;;2068880;28;21678;-60
2023/09/06 00:37:42;;;;;;;1.70;0.40;;;;;;;;;;2071375;28;20026;-60
2023/09/06 00:39:03;;;;;;;0.70;0.43;;;;;;;;;;2068704;28;20418;-65
2023/09/06 00:40:22;;;;;;;0.88;0.30;;;;;;;;;;2070678;28;20434;-59
2023/09/06 00:41:41;;;;;;;2.75;0.40;;;;;;;;;;2071788;28;20058;-59
2023/09/06 00:43:01;;;;;;;1.65;0.22;;;;;;;;;;2071109;28;20030;-59
2023/09/06 00:44:20;;;;;;;0.70;0.50;;;;;;;;;;2063303;28;20027;-60
2023/09/06 00:45:38;;;;;;;0.50;0.50;;;;;;;;;;2068126;28;20422;-60
2023/09/06 00:46:59;;;;;;;0.30;0.20;;;;;;;;;;2070769;28;20487;-60
2023/09/06 00:48:19;;;;;;;0.55;0.30;;;;;;;;;;2071543;28;20030;-60
2023/09/06 00:49:38;;;;;;;0.80;0.30;;;;;;;;;;2070802;28;20045;-60
2023/09/06 00:50:57;;;;;;;0.95;0.30;;;;;;;;;;2071826;28;20033;-61
2023/09/06 00:52:17;;;;;;;1.17;0.50;;;;;;;;;;2071117;28;20034;-61
2023/09/06 00:53:37;;;;;;;1.75;0.40;;;;;;;;;;2068691;28;20046;-60
2023/09/06 00:54:57;;;;;;;0.70;0.20;;;;;;;;;;2070696;28;20149;-60
2023/09/06 00:56:17;;;;;;;0.93;0.40;;;;;;;;;;2072278;28;20406;-60
2023/09/06 00:57:36;;;;;;;2.45;0.43;;;;;;;;;;2071009;28;20030;-60
2023/09/06 00:58:55;;;;;;;0.30;0.20;;;;;;;;;;2071497;28;20482;-60
2023/09/06 01:00:17;;;;;;;0.57;0.52;;;;;;;;;;2068356;28;20475;-60
2023/09/06 01:01:36;;;;;;;0.40;0.40;;;;;;;;;;2069817;28;20536;-60
2023/09/06 01:02:56;;;;;;;0.50;0.30;;;;;;;;;;2070153;28;20014;-59
2023/09/06 01:04:15;;;;;;;0.98;0.70;;;;;;;;;;2071209;28;20022;-59
2023/09/06 01:05:41;;;;;;;0.63;0.30;;;;;;;;;;2070595;28;20034;-60
2023/09/06 01:07:02;;;;;;;2.25;0.60;;;;;;;;;;2068393;28;20709;-60
2023/09/06 01:08:28;;;;;;;0.50;0.40;;;;;;;;;;2069746;28;20034;-59
2023/09/06 01:09:47;;;;;;;0.65;0.40;;;;;;;;;;2068396;28;20188;-60
2023/09/06 01:11:18;;;;;;;2.05;0.40;;;;;;;;;;2070642;28;20034;-63
2023/09/06 01:12:37;;;;;;;1.08;0.50;;;;;;;;;;2069458;28;20030;-59
2023/09/06 01:13:58;;;;;;;1.67;0.40;;;;;;;;;;2069412;28;20442;-60
2023/09/06 01:15:17;;;;;;;2.92;0.50;;;;;;;;;;2069646;28;20039;-60
2023/09/06 01:16:41;;;;;;;0.77;0.40;;;;;;;;;;2071953;28;20033;-61
2023/09/06 01:18:03;;;;;;;2.70;1.02;;;;;;;;;;2069764;28;20496;-60
2023/09/06 01:19:25;;;;;;;2.80;0.98;;;;;;;;;;2069773;28;20026;-60
2023/09/06 01:20:52;;;;;;;1.83;0.63;;;;;;;;;;2071541;28;20026;-60
2023/09/06 01:22:20;;;;;;;2.58;0.52;;;;;;;;;;2070095;28;20503;-61
2023/09/06 01:23:40;;;;;;;4.03;0.65;;;;;;;;;;2069402;28;20038;-60
2023/09/06 01:24:59;;;;;;;1.67;0.60;;;;;;;;;;2070416;28;20030;-59
2023/09/06 01:26:18;;;;;;;1.63;0.40;;;;;;;;;;2068613;28;20046;-62
2023/09/06 01:27:38;;;;;;;1.20;0.50;;;;;;;;;;2069852;28;20112;-62
2023/09/06 01:28:57;;;;;;;2.97;0.63;;;;;;;;;;2063532;28;20070;-59
2023/09/06 01:30:17;;;;;;;0.95;0.50;;;;;;;;;;2066769;28;20026;-58
2023/09/06 01:31:36;;;;;;;3.22;0.60;;;;;;;;;;2070124;28;20413;-58
2023/09/06 01:32:55;;;;;;;1.90;0.30;;;;;;;;;;2070314;28;20473;-59
2023/09/06 01:34:14;;;;;;;2.38;0.70;;;;;;;;;;2071361;28;20474;-59
2023/09/06 01:35:33;;;;;;;4.43;0.70;;;;;;;;;;2069378;28;20033;-60
2023/09/06 01:36:52;;;;;;;3.65;0.80;;;;;;;;;;2072222;28;20042;-58
2023/09/06 01:38:11;;;;;;;1.95;0.40;;;;;;;;;;2069991;28;20029;-60
2023/09/06 01:39:30;;;;;;;3.83;0.60;;;;;;;;;;2067410;28;20588;-59
2023/09/06 01:40:51;;;;;;;6.13;0.80;;;;;;;;;;2070448;28;20030;-58
2023/09/06 01:42:09;;;;;;;4.50;0.73;;;;;;;;;;2070379;28;20037;-59
2023/09/06 01:43:28;;;;;;;2.03;0.50;;;;;;;;;;2070692;28;20391;-59
2023/09/06 01:44:48;;;;;;;2.28;0.60;;;;;;;;;;2068416;28;20026;-59
2023/09/06 01:46:07;;;;;;;3.03;0.65;;;;;;;;;;2070089;28;20101;-58
2023/09/06 01:47:27;;;;;;;5.57;0.73;;;;;;;;;;2070060;28;20030;-60
2023/09/06 01:48:46;;;;;;;3.63;0.85;;;;;;;;;;2068264;28;20030;-58
2023/09/06 01:50:06;;;;;;;1.25;0.50;;;;;;;;;;2071052;28;20026;-59
2023/09/06 01:51:24;;;;;;;3.00;0.50;;;;;;;;;;2066972;28;20582;-59
2023/09/06 01:52:43;;;;;;;1.65;0.90;;;;;;;;;;2069996;28;20471;-60
2023/09/06 01:54:04;;;;;;;2.33;0.40;;;;;;;;;;2068890;28;20494;-59
2023/09/06 01:55:23;;;;;;;3.95;0.90;;;;;;;;;;2070123;28;20108;-60
2023/09/06 01:56:42;;;;;;;1.08;0.60;;;;;;;;;;2061784;28;20515;-59
2023/09/06 01:58:03;;;;;;;7.38;1.63;;;;;;;;;;2064694;28;20026;-58
2023/09/06 01:59:23;;;;;;;6.80;0.93;;;;;;;;;;2069449;28;20141;-58
2023/09/06 02:00:43;;;;;;;1.67;0.50;;;;;;;;;;2060708;28;20046;-61
2023/09/06 02:02:04;;;;;;;1.23;0.60;;;;;;;;;;2066222;28;20034;-60
2023/09/06 02:03:23;;;;;;;6.75;0.80;;;;;;;;;;2058149;28;20023;-58
2023/09/06 02:04:42;;;;;;;1.75;0.63;;;;;;;;;;2061794;28;20479;-59
2023/09/06 02:06:01;;;;;;;1.65;0.30;;;;;;;;;;2066564;28;20064;-59
2023/09/06 02:07:20;;;;;;;2.40;0.77;;;;;;;;;;2069658;28;20065;-60
2023/09/06 02:08:42;;;;;;;5.82;0.65;;;;;;;;;;2070341;28;20029;-60
2023/09/06 02:10:02;;;;;;;1.83;0.50;;;;;;;;;;2070711;28;20022;-60
2023/09/06 02:11:22;;;;;;;1.20;0.38;;;;;;;;;;2069597;28;20034;-59
2023/09/06 02:12:41;;;;;;;2.45;0.40;;;;;;;;;;2070224;28;20034;-59
2023/09/06 02:14:00;;;;;;;0.70;0.45;;;;;;;;;;2069699;28;20448;-60
2023/09/06 02:15:19;;;;;;;1.17;0.50;;;;;;;;;;2061345;28;20030;-59
2023/09/06 02:16:37;;;;;;;1.63;0.73;;;;;;;;;;2066126;28;20026;-60
2023/09/06 02:17:56;;;;;;;2.90;0.35;;;;;;;;;;2069129;28;20030;-60
2023/09/06 02:19:16;;;;;;;1.20;0.40;;;;;;;;;;2070377;28;20049;-60
2023/09/06 02:20:35;;;;;;;2.55;0.55;;;;;;;;;;2070542;28;20495;-59
2023/09/06 02:21:55;;;;;;;0.68;0.45;;;;;;;;;;2060859;28;20081;-60
2023/09/06 02:23:14;;;;;;;0.88;0.35;;;;;;;;;;2066155;28;20018;-59
2023/09/06 02:24:33;;;;;;;2.30;0.63;;;;;;;;;;2068967;28;20142;-58
2023/09/06 02:25:52;;;;;;;0.90;0.52;;;;;;;;;;2069078;28;20061;-58
2023/09/06 02:27:12;;;;;;;1.67;0.47;;;;;;;;;;2068945;28;20494;-59
2023/09/06 02:28:32;;;;;;;3.13;0.50;;;;;;;;;;2070601;28;20058;-59
2023/09/06 02:29:51;;;;;;;2.53;0.50;;;;;;;;;;2069368;28;20395;-59
2023/09/06 02:31:10;;;;;;;1.92;0.77;;;;;;;;;;2071780;28;20445;-58
2023/09/06 02:32:31;;;;;;;0.98;0.50;;;;;;;;;;2069927;28;20042;-59
2023/09/06 02:33:50;;;;;;;0.88;0.45;;;;;;;;;;2070274;28;20030;-59
2023/09/06 02:35:09;;;;;;;3.33;0.70;;;;;;;;;;2072850;28;20054;-59
2023/09/06 02:36:28;;;;;;;1.40;0.60;;;;;;;;;;2069185;28;20073;-58
2023/09/06 02:37:47;;;;;;;2.25;0.73;;;;;;;;;;2068700;28;20029;-59
2023/09/06 02:39:06;;;;;;;3.55;0.77;;;;;;;;;;2068028;28;20030;-59
2023/09/06 02:40:25;;;;;;;1.40;0.50;;;;;;;;;;2070467;28;20030;-60
2023/09/06 02:41:45;;;;;;;0.90;0.45;;;;;;;;;;2070415;28;20037;-59
2023/09/06 02:43:04;;;;;;;5.07;0.73;;;;;;;;;;2070511;28;20038;-60
2023/09/06 02:44:24;;;;;;;0.65;0.40;;;;;;;;;;2070113;28;21481;-60
2023/09/06 02:45:49;;;;;;;5.03;0.70;;;;;;;;;;2070598;28;20038;-59
2023/09/06 02:47:11;;;;;;;4.78;0.95;;;;;;;;;;2069877;28;20029;-60
2023/09/06 02:48:33;;;;;;;1.65;0.65;;;;;;;;;;2068671;28;20112;-60
2023/09/06 02:49:55;;;;;;;2.38;0.55;;;;;;;;;;2071292;28;20034;-60
2023/09/06 02:51:15;;;;;;;1.90;0.57;;;;;;;;;;2070843;28;20030;-60
2023/09/06 02:52:35;;;;;;;3.17;0.80;;;;;;;;;;2062432;28;20038;-60
2023/09/06 02:53:56;;;;;;;4.00;0.90;;;;;;;;;;2065124;28;20033;-59
2023/09/06 02:55:15;;;;;;;6.75;0.90;;;;;;;;;;2068714;28;20395;-61
2023/09/06 02:56:37;;;;;;;1.55;0.45;;;;;;;;;;2070617;28;20038;-61
2023/09/06 02:57:56;;;;;;;4.75;0.63;;;;;;;;;;2071264;28;20034;-61
2023/09/06 02:59:15;;;;;;;2.00;0.80;;;;;;;;;;2071595;28;20053;-60
2023/09/06 03:00:35;;;;;;;4.00;1.02;;;;;;;;;;2068491;28;20038;-60
2023/09/06 03:01:54;;;;;;;2.40;1.10;;;;;;;;;;2068431;28;20029;-61
2023/09/06 03:03:15;;;;;;;5.68;0.75;;;;;;;;;;2068351;28;20029;-60
2023/09/06 03:04:37;;;;;;;0.70;0.50;;;;;;;;;;2069651;28;20037;-59
2023/09/06 03:05:57;;;;;;;4.30;0.55;;;;;;;;;;2070445;28;20057;-60
2023/09/06 03:07:16;;;;;;;2.55;0.68;;;;;;;;;;2070271;28;20054;-59
2023/09/06 03:08:36;;;;;;;2.17;0.52;;;;;;;;;;2068299;28;20836;-61
2023/09/06 03:09:56;;;;;;;1.50;0.68;;;;;;;;;;2070875;28;20034;-60
2023/09/06 03:11:15;;;;;;;1.00;0.68;;;;;;;;;;2069717;28;20026;-60
2023/09/06 03:12:35;;;;;;;3.13;1.00;;;;;;;;;;2069862;28;20113;-59
2023/09/06 03:13:55;;;;;;;7.95;0.68;;;;;;;;;;2070175;28;20030;-60
2023/09/06 03:15:15;;;;;;;2.58;0.82;;;;;;;;;;2070254;28;20026;-59
2023/09/06 03:16:38;;;;;;;2.45;0.68;;;;;;;;;;2070972;28;20034;-59
2023/09/06 03:18:01;;;;;;;5.15;1.20;;;;;;;;;;2069692;28;20030;-60
2023/09/06 03:19:20;;;;;;;3.08;1.20;;;;;;;;;;2071856;28;20062;-59
2023/09/06 03:20:42;;;;;;;4.20;0.82;;;;;;;;;;2071018;28;20542;-59
2023/09/06 03:22:06;;;;;;;2.35;0.70;;;;;;;;;;2062193;28;20031;-60
2023/09/06 03:23:25;;;;;;;0.77;0.60;;;;;;;;;;2068433;28;20495;-58
2023/09/06 03:24:44;;;;;;;0.77;0.50;;;;;;;;;;2069453;28;20026;-59
2023/09/06 03:26:05;;;;;;;2.05;0.63;;;;;;;;;;2066025;28;20030;-59
2023/09/06 03:27:24;;;;;;;2.83;0.50;;;;;;;;;;2070160;28;20029;-60
2023/09/06 03:28:44;;;;;;;2.95;0.60;;;;;;;;;;2069728;28;20038;-59
2023/09/06 03:30:06;;;;;;;2.55;1.00;;;;;;;;;;2068594;28;20018;-61
2023/09/06 03:31:26;;;;;;;10.57;1.08;;;;;;;;;;2069172;28;20885;-59
2023/09/06 03:32:48;;;;;;;1.90;0.93;;;;;;;;;;2069223;28;20442;-60
2023/09/06 03:34:07;;;;;;;4.93;0.60;;;;;;;;;;2070608;28;20483;-59
2023/09/06 03:35:27;;;;;;;3.83;1.13;;;;;;;;;;2070764;28;20034;-60
2023/09/06 03:36:55;;;;;;;4.10;0.52;;;;;;;;;;2070159;28;20030;-60
2023/09/06 03:38:17;;;;;;;0.47;0.40;;;;;;;;;;2070531;28;20069;-59
2023/09/06 03:39:43;;;;;;;4.82;0.80;;;;;;;;;;2070162;28;20033;-60
2023/09/06 03:41:02;;;;;;;1.15;0.77;;;;;;;;;;2071939;28;20411;-60
2023/09/06 03:42:23;;;;;;;2.70;0.50;;;;;;;;;;2071178;28;20506;-60
2023/09/06 03:43:42;;;;;;;3.35;0.90;;;;;;;;;;2071649;28;20030;-60
2023/09/06 03:45:02;;;;;;;2.05;0.60;;;;;;;;;;2070565;28;20022;-59
2023/09/06 03:46:22;;;;;;;2.25;1.50;;;;;;;;;;2071069;28;20034;-59
2023/09/06 03:47:41;;;;;;;3.17;1.00;;;;;;;;;;2062118;28;20038;-59
2023/09/06 03:49:05;;;;;;;3.05;0.47;;;;;;;;;;2070018;28;20112;-59
2023/09/06 03:50:24;;;;;;;5.10;0.85;;;;;;;;;;2070313;28;20030;-59
2023/09/06 03:51:43;;;;;;;2.22;0.68;;;;;;;;;;2071681;28;20394;-60
2023/09/06 03:53:04;;;;;;;1.05;0.55;;;;;;;;;;2069442;28;20050;-60
2023/09/06 03:54:24;;;;;;;1.08;0.80;;;;;;;;;;2068963;28;20030;-62
2023/09/06 03:55:43;;;;;;;2.42;0.70;;;;;;;;;;2067363;28;20112;-60
2023/09/06 03:57:02;;;;;;;1.60;0.90;;;;;;;;;;2072140;28;20475;-59
2023/09/06 03:58:21;;;;;;;1.10;0.90;;;;;;;;;;2061675;28;20502;-59
2023/09/06 03:59:40;;;;;;;3.40;1.10;;;;;;;;;;2067486;28;20449;-59
2023/09/06 04:00:59;;;;;;;0.90;0.60;;;;;;;;;;2070183;28;20030;-59
2023/09/06 04:02:19;;;;;;;1.77;0.65;;;;;;;;;;2068324;28;21488;-60
2023/09/06 04:03:38;;;;;;;4.40;0.50;;;;;;;;;;2071737;28;20026;-62
2023/09/06 04:04:57;;;;;;;2.53;0.60;;;;;;;;;;2071876;28;20030;-59
2023/09/06 04:06:16;;;;;;;5.18;1.02;;;;;;;;;;2069229;28;20503;-59
2023/09/06 04:07:38;;;;;;;2.55;1.15;;;;;;;;;;2070490;28;20033;-60
2023/09/06 04:08:57;;;;;;;2.90;0.60;;;;;;;;;;2069447;28;20030;-60
2023/09/06 04:10:21;;;;;;;2.38;0.73;;;;;;;;;;2071645;28;20652;-60
2023/09/06 04:11:40;;;;;;;2.22;0.85;;;;;;;;;;2072515;28;20065;-59
2023/09/06 04:12:59;;;;;;;1.05;0.68;;;;;;;;;;2073564;28;20057;-59
2023/09/06 04:14:18;;;;;;;4.70;0.80;;;;;;;;;;2069292;28;20853;-58
2023/09/06 04:15:38;;;;;;;3.20;0.63;;;;;;;;;;2069959;28;20034;-59
2023/09/06 04:16:59;;;;;;;2.50;0.73;;;;;;;;;;2070777;28;20049;-60
2023/09/06 04:18:18;;;;;;;2.90;0.80;;;;;;;;;;2070246;28;20022;-60
2023/09/06 04:19:37;;;;;;;4.05;0.82;;;;;;;;;;2071518;28;20038;-62
2023/09/06 04:20:59;;;;;;;4.82;0.80;;;;;;;;;;2068674;28;20105;-63
2023/09/06 04:22:19;;;;;;;3.30;0.75;;;;;;;;;;2072710;28;20037;-64
2023/09/06 04:23:39;;;;;;;3.47;0.85;;;;;;;;;;2071656;28;20026;-65
2023/09/06 04:24:58;;;;;;;4.00;1.10;;;;;;;;;;2071305;28;20031;-62
2023/09/06 04:26:16;;;;;;;5.85;1.00;;;;;;;;;;2070928;28;20104;-60
2023/09/06 04:27:35;;;;;;;1.20;0.60;;;;;;;;;;2071651;28;20034;-59
2023/09/06 04:28:54;;;;;;;1.38;0.75;;;;;;;;;;2069703;28;20031;-66
2023/09/06 04:30:17;;;;;;;4.47;0.90;;;;;;;;;;2066818;28;20026;-63
2023/09/06 04:31:36;;;;;;;5.55;0.80;;;;;;;;;;2070151;28;20026;-63
2023/09/06 04:32:57;;;;;;;1.10;0.70;;;;;;;;;;2072348;28;20526;-59
2023/09/06 04:34:16;;;;;;;4.03;1.15;;;;;;;;;;2071469;28;20033;-62
2023/09/06 04:35:42;;;;;;;3.08;0.85;;;;;;;;;;2071094;28;20030;-63
2023/09/06 04:37:02;;;;;;;3.97;0.93;;;;;;;;;;2072782;28;20045;-63
2023/09/06 04:38:23;;;;;;;1.58;0.80;;;;;;;;;;2067319;28;20026;-64
2023/09/06 04:39:43;;;;;;;1.70;0.70;;;;;;;;;;2071366;28;20069;-67
2023/09/06 04:41:02;;;;;;;9.52;0.93;;;;;;;;;;2070885;28;20026;-64
2023/09/06 04:42:21;;;;;;;0.95;0.68;;;;;;;;;;2071076;28;20026;-64
2023/09/06 04:43:40;;;;;;;1.55;0.80;;;;;;;;;;2072829;28;20025;-64
2023/09/06 04:45:00;;;;;;;5.68;0.77;;;;;;;;;;2070222;28;20034;-64
2023/09/06 04:46:19;;;;;;;4.10;0.80;;;;;;;;;;2070119;28;20108;-64
2023/09/06 04:47:39;;;;;;;2.25;0.90;;;;;;;;;;2066556;28;20038;-65
2023/09/06 04:48:58;;;;;;;4.78;0.82;;;;;;;;;;2068428;28;20026;-63
2023/09/06 04:50:18;;;;;;;1.77;0.80;;;;;;;;;;2070989;28;20701;-63
2023/09/06 04:51:37;;;;;;;1.70;0.90;;;;;;;;;;2069434;28;20038;-63
2023/09/06 04:52:57;;;;;;;5.22;1.05;;;;;;;;;;2071553;28;20069;-64
2023/09/06 04:54:16;;;;;;;2.30;0.75;;;;;;;;;;2060302;28;20026;-64
2023/09/06 04:55:35;;;;;;;2.67;1.20;;;;;;;;;;2067943;28;20478;-64
2023/09/06 04:56:54;;;;;;;2.88;0.90;;;;;;;;;;2068906;28;20038;-64
2023/09/06 04:58:14;;;;;;;5.43;1.08;;;;;;;;;;2071358;28;20022;-66
2023/09/06 04:59:33;;;;;;;1.23;0.70;;;;;;;;;;2068319;28;20490;-64
2023/09/06 05:00:52;;;;;;;5.38;1.00;;;;;;;;;;2070626;28;20120;-67
2023/09/06 05:02:11;;;;;;;2.70;1.38;;;;;;;;;;2068047;28;20034;-64
2023/09/06 05:03:31;;;;;;;4.55;1.20;;;;;;;;;;2070203;28;20042;-65
2023/09/06 05:04:51;;;;;;;4.13;1.10;;;;;;;;;;2068172;28;20030;-65
2023/09/06 05:06:09;;;;;;;3.28;1.10;;;;;;;;;;2067620;28;20030;-64
2023/09/06 05:07:30;;;;;;;4.47;1.00;;;;;;;;;;2070168;28;20631;-69
2023/09/06 05:08:49;;;;;;;4.28;1.10;;;;;;;;;;2070013;28;20025;-66
2023/09/06 05:10:09;;;;;;;2.63;0.85;;;;;;;;;;2068489;28;20455;-65
2023/09/06 05:11:28;;;;;;;2.90;0.80;;;;;;;;;;2069944;28;20026;-64
2023/09/06 05:12:47;;;;;;;2.00;0.90;;;;;;;;;;2068917;28;20116;-65
2023/09/06 05:14:06;;;;;;;2.97;0.80;;;;;;;;;;2067949;28;20034;-64
2023/09/06 05:15:25;;;;;;;4.70;1.00;;;;;;;;;;2068607;28;20057;-66
2023/09/06 05:16:44;;;;;;;1.35;0.98;;;;;;;;;;2069726;28;22569;-64
2023/09/06 05:18:04;;;;;;;4.60;0.95;;;;;;;;;;2070078;28;20530;-64
2023/09/06 05:19:27;;;;;;;2.45;0.98;;;;;;;;;;2066889;28;20034;-64
2023/09/06 05:20:46;;;;;;;2.75;1.15;;;;;;;;;;2070288;28;20026;-64
2023/09/06 05:22:05;;;;;;;4.00;0.95;;;;;;;;;;2064213;28;20030;-64
2023/09/06 05:23:24;;;;;;;4.60;1.05;;;;;;;;;;2070398;28;20033;-64
2023/09/06 05:24:43;;;;;;;3.38;0.80;;;;;;;;;;2066884;28;20034;-63
2023/09/06 05:26:02;;;;;;;4.47;1.35;;;;;;;;;;2059843;28;20492;-63
2023/09/06 05:27:21;;;;;;;3.53;0.85;;;;;;;;;;2067873;28;20073;-65
2023/09/06 05:28:42;;;;;;;4.88;0.93;;;;;;;;;;2068028;28;20050;-63
2023/09/06 05:30:02;;;;;;;3.78;1.40;;;;;;;;;;2059504;28;20035;-64
2023/09/06 05:31:21;;;;;;;5.95;2.00;;;;;;;;;;2068062;28;20550;-63
2023/09/06 05:32:40;;;;;;;6.35;1.48;;;;;;;;;;2068675;28;20033;-63
2023/09/06 05:34:00;;;;;;;10.05;1.45;;;;;;;;;;2069145;28;20909;-64
2023/09/06 05:35:19;;;;;;;3.17;0.95;;;;;;;;;;2066252;28;22054;-64
2023/09/06 05:36:38;;;;;;;5.05;1.20;;;;;;;;;;2068004;28;20063;-64
2023/09/06 05:37:56;;;;;;;5.20;1.05;;;;;;;;;;2062286;28;20397;-65
2023/09/06 05:39:16;;;;;;;4.20;1.27;;;;;;;;;;2068686;28;20497;-63
2023/09/06 05:40:35;;;;;;;4.53;0.80;;;;;;;;;;2056966;28;20113;-64
2023/09/06 05:41:54;;;;;;;6.95;1.20;;;;;;;;;;2057006;28;20688;-64
2023/09/06 05:43:13;;;;;;;8.35;1.00;;;;;;;;;;2054957;28;20033;-63
2023/09/06 05:44:31;;;;;;;4.88;1.02;;;;;;;;;;2063718;28;20042;-65
2023/09/06 05:45:50;;;;;;;6.78;1.55;;;;;;;;;;2063111;28;21063;-64
2023/09/06 05:47:09;;;;;;;5.88;1.33;;;;;;;;;;2063008;28;20042;-65
2023/09/06 05:48:29;;;;;;;11.25;1.67;;;;;;;;;;2063614;28;20026;-64
2023/09/06 05:49:51;;;;;;;8.82;1.38;;;;;;;;;;2068970;28;20499;-64
2023/09/06 05:51:10;;;;;;;4.63;1.38;;;;;;;;;;2065350;28;20629;-63
2023/09/06 05:52:29;;;;;;;5.28;0.90;;;;;;;;;;2064934;28;20487;-63
2023/09/06 05:53:48;;;;;;;3.42;0.77;;;;;;;;;;2068386;28;20042;-64
2023/09/06 05:55:08;;;;;;;4.18;0.88;;;;;;;;;;2071152;28;20026;-64
2023/09/06 05:56:27;;;;;;;6.53;1.27;;;;;;;;;;2069211;28;20030;-63
2023/09/06 05:57:45;;;;;;;3.70;1.05;;;;;;;;;;2068992;28;20410;-64
2023/09/06 05:59:05;;;;;;;5.28;0.80;;;;;;;;;;2069426;28;20132;-63
2023/09/06 06:00:28;;;;;;;2.85;0.90;;;;;;;;;;2068633;28;20030;-64
2023/09/06 06:01:47;;;;;;;2.65;0.90;;;;;;;;;;2060939;28;20034;-64
2023/09/06 06:03:06;;;;;;;8.50;0.98;;;;;;;;;;2065701;28;20026;-64
2023/09/06 06:04:25;;;;;;;7.25;1.02;;;;;;;;;;2070781;28;20025;-64
2023/09/06 06:05:44;;;;;;;3.13;0.75;;;;;;;;;;2071924;28;20239;-64
2023/09/06 06:07:04;;;;;;;2.58;0.60;;;;;;;;;;2070814;28;20332;-64
2023/09/06 06:08:23;;;;;;;6.95;0.90;;;;;;;;;;2070254;28;20037;-64
2023/09/06 06:09:42;;;;;;;4.03;1.17;;;;;;;;;;2068317;28;20034;-64
2023/09/06 06:11:01;;;;;;;8.05;1.05;;;;;;;;;;2068016;28;20445;-65
2023/09/06 06:12:22;;;;;;;3.85;1.25;;;;;;;;;;2065627;28;20049;-64
2023/09/06 06:13:41;;;;;;;11.50;1.35;;;;;;;;;;2071666;28;20072;-64
2023/09/06 06:15:00;;;;;;;7.28;1.65;;;;;;;;;;2062145;28;20245;-65
2023/09/06 06:16:20;;;;;;;6.82;0.90;;;;;;;;;;2064974;28;20034;-63
2023/09/06 06:17:40;;;;;;;3.95;1.55;;;;;;;;;;2066360;28;20101;-63
2023/09/06 06:18:59;;;;;;;3.20;0.77;;;;;;;;;;2069201;28;20026;-63
2023/09/06 06:20:19;;;;;;;2.42;0.80;;;;;;;;;;2069943;28;20105;-64
2023/09/06 06:21:38;;;;;;;5.15;0.90;;;;;;;;;;2071562;28;20487;-65
2023/09/06 06:22:58;;;;;;;3.38;1.05;;;;;;;;;;2068076;28;20038;-64
2023/09/06 06:24:17;;;;;;;4.32;0.75;;;;;;;;;;2070023;28;20401;-63
2023/09/06 06:25:36;;;;;;;4.75;1.00;;;;;;;;;;2071975;28;20482;-64
2023/09/06 06:26:55;;;;;;;6.40;1.33;;;;;;;;;;2069247;28;20514;-64
2023/09/06 06:28:14;;;;;;;9.55;1.00;;;;;;;;;;2067501;28;20041;-63
2023/09/06 06:29:33;;;;;;;4.60;1.02;;;;;;;;;;2068935;28;20065;-65
2023/09/06 06:30:52;;;;;;;5.20;1.30;;;;;;;;;;2065338;28;20486;-64
2023/09/06 06:32:11;;;;;;;2.47;0.80;;;;;;;;;;2066332;28;20038;-66
2023/09/06 06:33:30;;;;;;;4.50;0.80;;;;;;;;;;2065461;28;20042;-65
2023/09/06 06:34:54;;;;;;;7.35;1.30;;;;;;;;;;2065179;28;20398;-66
2023/09/06 06:36:14;;;;;;;6.85;1.23;;;;;;;;;;2065390;28;20030;-64
2023/09/06 06:37:33;;;;;;;4.47;0.68;;;;;;;;;;2069431;28;20113;-65
2023/09/06 06:38:52;;;;;;;3.65;1.02;;;;;;;;;;2069236;28;20026;-65
2023/09/06 06:40:11;;;;;;;7.32;1.45;;;;;;;;;;2066941;28;20079;-65
2023/09/06 06:41:31;;;;;;;4.68;0.95;;;;;;;;;;2064242;28;20031;-64
2023/09/06 06:42:50;;;;;;;3.75;0.98;;;;;;;;;;2068682;28;20554;-65
2023/09/06 06:44:09;;;;;;;6.07;0.70;;;;;;;;;;2067431;28;20030;-66
2023/09/06 06:45:28;;;;;;;7.22;0.98;;;;;;;;;;2058508;28;20022;-65
2023/09/06 06:46:46;;;;;;;2.78;0.77;;;;;;;;;;2065871;28;20522;-64
2023/09/06 06:48:06;;;;;;;2.97;0.80;;;;;;;;;;2065455;28;20042;-65
2023/09/06 06:49:25;;;;;;;3.45;0.73;;;;;;;;;;2071379;28;20029;-65
2023/09/06 06:50:44;;;;;;;2.28;0.85;;;;;;;;;;2068609;28;20037;-65
2023/09/06 06:52:03;;;;;;;0.57;0.45;;;;;;;;;;2067347;28;20038;-65
2023/09/06 06:53:22;;;;;;;2.10;0.80;;;;;;;;;;2059075;28;20653;-65
2023/09/06 06:54:42;;;;;;;4.32;0.63;;;;;;;;;;2064541;28;20038;-65
2023/09/06 06:56:00;;;;;;;3.80;0.80;;;;;;;;;;2070243;28;20038;-65
2023/09/06 06:57:19;;;;;;;5.82;0.95;;;;;;;;;;2065430;28;20050;-65
2023/09/06 06:58:38;;;;;;;1.70;0.88;;;;;;;;;;2064761;28;20521;-64
2023/09/06 06:59:57;;;;;;;3.90;0.75;;;;;;;;;;2066416;28;20042;-65
2023/09/06 07:01:16;;;;;;;1.75;0.60;;;;;;;;;;2067835;28;20026;-65
2023/09/06 07:02:35;;;;;;;1.70;0.50;;;;;;;;;;2067935;28;20033;-66
2023/09/06 07:03:54;;;;;;;1.30;0.50;;;;;;;;;;2066658;28;20030;-64
2023/09/06 07:05:13;;;;;;;1.10;0.70;;;;;;;;;;2066055;28;20490;-65
2023/09/06 07:06:32;;;;;;;2.38;0.63;;;;;;;;;;2068427;28;20049;-66
2023/09/06 07:07:51;;;;;;;4.57;0.90;;;;;;;;;;2068458;28;20030;-65
2023/09/06 07:09:10;;;;;;;5.82;1.00;;;;;;;;;;2068155;28;20109;-66
2023/09/06 07:10:30;;;;;;;5.20;0.93;;;;;;;;;;2068247;28;20108;-65
2023/09/06 07:11:49;;;;;;;5.50;0.60;;;;;;;;;;2069278;28;20029;-66
2023/09/06 07:13:08;;;;;;;5.65;0.70;;;;;;;;;;2071441;28;20042;-65
2023/09/06 07:14:28;;;;;;;1.90;0.70;;;;;;;;;;2069826;28;20021;-64
2023/09/06 07:15:47;;;;;;;5.47;1.08;;;;;;;;;;2071791;28;20026;-64
2023/09/06 07:17:06;;;;;;;2.40;0.80;;;;;;;;;;2069738;28;20030;-64
2023/09/06 07:18:25;;;;;;;4.05;0.93;;;;;;;;;;2067883;28;20074;-64
2023/09/06 07:19:44;;;;;;;5.85;1.20;;;;;;;;;;2068879;28;20113;-65
2023/09/06 07:21:03;;;;;;;5.15;0.80;;;;;;;;;;2068617;28;21008;-65
2023/09/06 07:22:22;;;;;;;2.40;0.65;;;;;;;;;;2068969;28;20121;-66
2023/09/06 07:23:41;;;;;;;2.53;0.80;;;;;;;;;;2068276;28;20026;-64
2023/09/06 07:24:59;;;;;;;4.35;0.75;;;;;;;;;;2069729;28;20026;-65
2023/09/06 07:26:18;;;;;;;3.33;0.85;;;;;;;;;;2068928;28;20030;-65
2023/09/06 07:27:37;;;;;;;7.35;1.40;;;;;;;;;;2069269;28;20030;-66
2023/09/06 07:28:56;;;;;;;5.03;0.80;;;;;;;;;;2068881;28;20034;-65
2023/09/06 07:30:16;;;;;;;7.35;0.95;;;;;;;;;;2069515;28;20048;-68
2023/09/06 07:31:35;;;;;;;3.78;0.80;;;;;;;;;;2071090;28;20029;-65
2023/09/06 07:32:54;;;;;;;3.08;0.75;;;;;;;;;;2070218;28;20022;-65
2023/09/06 07:34:13;;;;;;;5.90;0.90;;;;;;;;;;2070047;28;20034;-65
2023/09/06 07:35:32;;;;;;;2.67;0.77;;;;;;;;;;2070674;28;20478;-65
2023/09/06 07:36:51;;;;;;;3.90;0.82;;;;;;;;;;2068211;28;20037;-64
2023/09/06 07:38:10;;;;;;;2.28;0.80;;;;;;;;;;2068972;28;20026;-65
2023/09/06 07:39:29;;;;;;;3.47;0.80;;;;;;;;;;2070241;28;20025;-65
2023/09/06 07:40:55;;;;;;;3.70;0.80;;;;;;;;;;2070638;28;20030;-64
2023/09/06 07:42:14;;;;;;;5.05;0.75;;;;;;;;;;2068538;28;20038;-65
2023/09/06 07:43:34;;;;;;;1.20;0.70;;;;;;;;;;2069232;28;20041;-66
2023/09/06 07:44:53;;;;;;;2.88;0.70;;;;;;;;;;2069035;28;21400;-66
2023/09/06 07:46:12;;;;;;;3.95;1.50;;;;;;;;;;2068525;28;20105;-64
2023/09/06 07:47:31;;;;;;;5.25;1.00;;;;;;;;;;2069768;28;20034;-65
2023/09/06 07:48:51;;;;;;;2.72;1.02;;;;;;;;;;2063889;28;20030;-65
2023/09/06 07:50:10;;;;;;;4.32;0.95;;;;;;;;;;2066767;28;20522;-64
2023/09/06 07:51:30;;;;;;;4.80;1.15;;;;;;;;;;2070875;28;20391;-65
2023/09/06 07:52:49;;;;;;;3.00;0.65;;;;;;;;;;2069294;28;20482;-66
2023/09/06 07:54:08;;;;;;;3.47;0.90;;;;;;;;;;2070247;28;20025;-65
2023/09/06 07:55:27;;;;;;;3.13;0.75;;;;;;;;;;2072503;28;20026;-65
2023/09/06 07:56:47;;;;;;;5.30;1.23;;;;;;;;;;2068390;28;20441;-64
2023/09/06 07:58:08;;;;;;;5.47;0.90;;;;;;;;;;2071073;28;20026;-65